Time;durP1;ratioP1;P1;durP2;ratioP2;P2;SDS_P1;SDS_P2;PMS_P1;PMS_P2;Temp;Humidity;BMP_temperature;BMP_pressure;BME280_temperature;BME280_humidity;BME280_pressure;Samples;Min_cycle;Max_cycle;Signal;HPM_P1;HPM_P2
2021/04/21 00:02:07;;;;;;;9.77;5.65;;;;;;;;;;5093425;28;20201;-59
2021/04/21 00:04:34;;;;;;;8.35;6.65;;;;;;;;;;5093306;28;20201;-60
2021/04/21 00:07:03;;;;;;;7.95;5.90;;;;;;;;;;5093357;28;20213;-59
2021/04/21 00:09:30;;;;;;;7.68;6.38;;;;;;;;;;5093766;28;20229;-59
2021/04/21 00:11:58;;;;;;;7.03;6.00;;;;;;;;;;5093756;28;20202;-60
2021/04/21 00:14:25;;;;;;;8.93;6.40;;;;;;;;;;5093513;28;20260;-59
2021/04/21 00:16:54;;;;;;;8.98;6.30;;;;;;;;;;5093534;28;20216;-60
2021/04/21 00:19:22;;;;;;;8.27;5.85;;;;;;;;;;5103416;28;20201;-59
2021/04/21 00:21:49;;;;;;;8.55;6.43;;;;;;;;;;5111175;28;20205;-59
2021/04/21 00:24:17;;;;;;;8.68;6.80;;;;;;;;;;5113145;28;20293;-60
2021/04/21 00:26:44;;;;;;;8.95;6.70;;;;;;;;;;5104408;28;20240;-61
2021/04/21 00:29:11;;;;;;;9.43;6.80;;;;;;;;;;5098673;28;20217;-59
2021/04/21 00:31:39;;;;;;;10.38;6.55;;;;;;;;;;5097893;28;20207;-59
2021/04/21 00:34:06;;;;;;;12.13;6.30;;;;;;;;;;5097268;28;20685;-59
2021/04/21 00:36:35;;;;;;;9.75;7.13;;;;;;;;;;5097276;28;20231;-59
2021/04/21 00:39:02;;;;;;;9.88;6.88;;;;;;;;;;5097079;28;20242;-59
2021/04/21 00:41:34;;;;;;;6.88;6.18;;;;;;;;;;5097319;28;20205;-58
2021/04/21 00:44:04;;;;;;;10.02;5.85;;;;;;;;;;5097280;28;20671;-60
2021/04/21 00:46:33;;;;;;;7.60;5.55;;;;;;;;;;5097172;28;20273;-60
2021/04/21 00:49:04;;;;;;;6.78;6.07;;;;;;;;;;5097087;28;20271;-60
2021/04/21 00:51:34;;;;;;;9.65;5.75;;;;;;;;;;5101371;28;20188;-60
2021/04/21 00:54:04;;;;;;;8.90;6.10;;;;;;;;;;5117497;28;20223;-59
2021/04/21 00:56:38;;;;;;;7.38;6.43;;;;;;;;;;5117226;28;20222;-60
2021/04/21 00:59:09;;;;;;;8.27;6.63;;;;;;;;;;5117074;28;20190;-60
2021/04/21 01:01:37;;;;;;;9.52;5.70;;;;;;;;;;5104681;28;20194;-60
2021/04/21 01:04:05;;;;;;;10.90;6.25;;;;;;;;;;5098110;28;20198;-60
2021/04/21 01:06:34;;;;;;;7.70;6.07;;;;;;;;;;5096402;28;20232;-60
2021/04/21 01:09:02;;;;;;;8.25;6.85;;;;;;;;;;5096893;28;20228;-59
2021/04/21 01:11:32;;;;;;;7.13;6.38;;;;;;;;;;5096643;28;20201;-60
2021/04/21 01:14:02;;;;;;;7.97;6.38;;;;;;;;;;5096756;28;20209;-59
2021/04/21 01:16:31;;;;;;;7.53;5.32;;;;;;;;;;5096825;28;20225;-59
2021/04/21 01:18:59;;;;;;;6.20;5.57;;;;;;;;;;5096679;28;20244;-60
2021/04/21 01:21:28;;;;;;;7.82;5.38;;;;;;;;;;5096626;28;20201;-60
2021/04/21 01:24:02;;;;;;;7.57;5.30;;;;;;;;;;5096665;28;20221;-59
2021/04/21 01:26:47;;;;;;;7.38;5.38;;;;;;;;;;5096022;28;20248;-60
2021/04/21 01:29:16;;;;;;;8.13;5.38;;;;;;;;;;5096388;28;20227;-59
2021/04/21 01:31:43;;;;;;;6.82;5.40;;;;;;;;;;5096651;28;20625;-60
2021/04/21 01:34:11;;;;;;;9.43;5.72;;;;;;;;;;5096261;28;20208;-60
2021/04/21 01:36:38;;;;;;;7.95;5.70;;;;;;;;;;5095948;28;20645;-59
2021/04/21 01:39:05;;;;;;;7.40;5.40;;;;;;;;;;5097136;28;20546;-59
2021/04/21 01:41:36;;;;;;;5.13;4.63;;;;;;;;;;5095881;28;20547;-60
2021/04/21 01:44:09;;;;;;;8.15;5.22;;;;;;;;;;5096226;28;20197;-60
2021/04/21 01:46:38;;;;;;;7.43;5.45;;;;;;;;;;5096258;28;20597;-59
2021/04/21 01:49:08;;;;;;;9.38;5.47;;;;;;;;;;5096059;28;20220;-59
2021/04/21 01:51:38;;;;;;;6.28;4.75;;;;;;;;;;5096569;28;20185;-60
2021/04/21 01:54:08;;;;;;;8.98;5.50;;;;;;;;;;5095774;28;20197;-60
2021/04/21 01:56:39;;;;;;;8.35;5.32;;;;;;;;;;5096551;28;20220;-59
2021/04/21 01:59:09;;;;;;;8.77;5.72;;;;;;;;;;5096827;28;20184;-59
2021/04/21 02:01:46;;;;;;;6.70;5.97;;;;;;;;;;5096483;28;20669;-59
2021/04/21 02:04:37;;;;;;;8.40;6.00;;;;;;;;;;5096030;28;20184;-59
2021/04/21 02:07:12;;;;;;;7.18;5.65;;;;;;;;;;5095902;28;20208;-59
2021/04/21 02:09:58;;;;;;;6.88;6.10;;;;;;;;;;5101717;28;20211;-61
2021/04/21 02:12:39;;;;;;;7.30;5.90;;;;;;;;;;5096945;28;20181;-59
2021/04/21 02:15:11;;;;;;;7.05;6.10;;;;;;;;;;5094107;28;20235;-60
2021/04/21 02:17:44;;;;;;;7.22;6.30;;;;;;;;;;5096177;28;20234;-58
2021/04/21 02:20:14;;;;;;;9.40;6.00;;;;;;;;;;5096742;28;20188;-59
2021/04/21 02:22:43;;;;;;;7.07;5.70;;;;;;;;;;5095767;28;20198;-60
2021/04/21 02:25:15;;;;;;;7.70;6.25;;;;;;;;;;5096547;28;20220;-61
2021/04/21 02:27:46;;;;;;;7.35;6.05;;;;;;;;;;5095600;28;20267;-60
2021/04/21 02:30:16;;;;;;;6.72;6.05;;;;;;;;;;5095714;28;20191;-60
2021/04/21 02:32:57;;;;;;;7.75;5.80;;;;;;;;;;5095547;28;20200;-59
2021/04/21 02:35:26;;;;;;;7.40;6.38;;;;;;;;;;5095308;28;20221;-60
2021/04/21 02:38:04;;;;;;;8.07;6.15;;;;;;;;;;5095175;28;20610;-60
2021/04/21 02:40:37;;;;;;;11.95;6.45;;;;;;;;;;5094935;28;20271;-59
2021/04/21 02:43:07;;;;;;;10.80;6.63;;;;;;;;;;5094863;28;20653;-60
2021/04/21 02:45:38;;;;;;;8.73;6.28;;;;;;;;;;5095098;28;20223;-60
2021/04/21 02:48:09;;;;;;;8.70;6.63;;;;;;;;;;5093783;28;20184;-60
2021/04/21 02:50:40;;;;;;;6.68;5.50;;;;;;;;;;5094919;28;20192;-59
2021/04/21 02:53:13;;;;;;;9.32;6.40;;;;;;;;;;5095009;28;20185;-59
2021/04/21 02:55:49;;;;;;;9.23;6.50;;;;;;;;;;5094886;28;20231;-59
2021/04/21 02:58:20;;;;;;;7.78;6.78;;;;;;;;;;5095063;28;20245;-59
2021/04/21 03:00:49;;;;;;;7.10;6.40;;;;;;;;;;5094558;28;20278;-59
2021/04/21 03:03:21;;;;;;;12.02;6.53;;;;;;;;;;5094646;28;20227;-60
2021/04/21 03:05:49;;;;;;;9.73;6.20;;;;;;;;;;5094079;28;20246;-60
2021/04/21 03:08:20;;;;;;;9.38;6.25;;;;;;;;;;5094482;28;20227;-60
2021/04/21 03:10:50;;;;;;;9.45;6.55;;;;;;;;;;5094181;28;20706;-59
2021/04/21 03:13:18;;;;;;;8.13;6.88;;;;;;;;;;5094210;28;20204;-60
2021/04/21 03:15:47;;;;;;;10.93;6.97;;;;;;;;;;5094324;28;20224;-60
2021/04/21 03:18:17;;;;;;;7.47;6.75;;;;;;;;;;5094027;28;20200;-59
2021/04/21 03:20:46;;;;;;;8.65;6.32;;;;;;;;;;5093970;28;20664;-59
2021/04/21 03:23:14;;;;;;;7.90;6.90;;;;;;;;;;5093990;28;20546;-59
2021/04/21 03:25:43;;;;;;;7.95;6.10;;;;;;;;;;5094166;28;20230;-59
2021/04/21 03:28:11;;;;;;;7.40;6.30;;;;;;;;;;5093845;28;20694;-59
2021/04/21 03:30:38;;;;;;;9.70;6.15;;;;;;;;;;5094203;28;20212;-59
2021/04/21 03:33:08;;;;;;;12.35;6.15;;;;;;;;;;5093860;28;20207;-59
2021/04/21 03:35:35;;;;;;;7.70;6.13;;;;;;;;;;5094071;28;20224;-60
2021/04/21 03:38:07;;;;;;;7.25;5.68;;;;;;;;;;5093897;28;20200;-60
2021/04/21 03:40:34;;;;;;;7.65;6.13;;;;;;;;;;5094204;28;20184;-59
2021/04/21 03:43:01;;;;;;;12.45;5.65;;;;;;;;;;5094294;28;20253;-59
2021/04/21 03:45:29;;;;;;;8.15;5.15;;;;;;;;;;5094102;28;20216;-59
2021/04/21 03:47:56;;;;;;;6.20;5.60;;;;;;;;;;5100715;28;20215;-60
2021/04/21 03:50:23;;;;;;;10.10;5.80;;;;;;;;;;5104894;28;20200;-60
2021/04/21 03:52:53;;;;;;;6.40;5.28;;;;;;;;;;5094098;28;20216;-59
2021/04/21 03:55:21;;;;;;;10.07;5.80;;;;;;;;;;5093755;28;20247;-59
2021/04/21 03:57:50;;;;;;;8.88;6.43;;;;;;;;;;5093808;28;20204;-59
2021/04/21 04:00:17;;;;;;;8.88;6.50;;;;;;;;;;5093965;28;20231;-59
2021/04/21 04:02:46;;;;;;;10.57;6.70;;;;;;;;;;5093966;28;20212;-59
2021/04/21 04:08:03;;;;;;;7.32;6.63;;;;;;;;;;5112065;27;20604;-58
2021/04/21 04:10:32;;;;;;;7.38;6.68;;;;;;;;;;5111278;28;20196;-59
2021/04/21 04:13:00;;;;;;;10.13;7.22;;;;;;;;;;5111098;28;20212;-59
2021/04/21 04:15:27;;;;;;;6.75;6.05;;;;;;;;;;5114205;28;20228;-60
2021/04/21 04:17:56;;;;;;;8.30;7.18;;;;;;;;;;5117536;28;20217;-59
2021/04/21 04:20:23;;;;;;;7.70;6.90;;;;;;;;;;5118507;28;20610;-59
2021/04/21 04:22:51;;;;;;;11.13;6.88;;;;;;;;;;5119723;28;20253;-58
2021/04/21 04:25:20;;;;;;;8.13;7.20;;;;;;;;;;5118351;28;20318;-59
2021/04/21 04:27:47;;;;;;;8.98;8.05;;;;;;;;;;5118717;28;20224;-59
2021/04/21 04:30:15;;;;;;;10.40;7.68;;;;;;;;;;5118665;28;20572;-59
2021/04/21 04:32:42;;;;;;;11.93;7.32;;;;;;;;;;5119063;28;20221;-58
2021/04/21 04:35:10;;;;;;;7.70;6.90;;;;;;;;;;5120815;28;20247;-59
2021/04/21 04:37:39;;;;;;;9.43;7.10;;;;;;;;;;5120821;28;20204;-60
2021/04/21 04:40:06;;;;;;;10.07;7.10;;;;;;;;;;5121487;28;20654;-60
2021/04/21 04:42:34;;;;;;;7.82;7.03;;;;;;;;;;5121529;28;20206;-59
2021/04/21 04:45:02;;;;;;;10.60;7.85;;;;;;;;;;5123651;28;20587;-61
2021/04/21 04:47:30;;;;;;;10.65;7.93;;;;;;;;;;5124163;28;20312;-59
2021/04/21 04:49:59;;;;;;;11.75;7.85;;;;;;;;;;5123888;28;20213;-58
2021/04/21 04:52:26;;;;;;;8.75;7.72;;;;;;;;;;5119800;28;20209;-59
2021/04/21 04:54:54;;;;;;;9.20;8.05;;;;;;;;;;5115420;28;20725;-59
2021/04/21 04:57:21;;;;;;;15.82;7.60;;;;;;;;;;5113903;28;20195;-59
2021/04/21 04:59:49;;;;;;;8.05;7.07;;;;;;;;;;5111413;28;20197;-59
2021/04/21 05:02:16;;;;;;;9.23;7.60;;;;;;;;;;5111359;28;20203;-60
2021/04/21 05:04:50;;;;;;;8.68;7.43;;;;;;;;;;5111315;28;20201;-61
2021/04/21 05:07:23;;;;;;;10.05;7.97;;;;;;;;;;5110056;28;20725;-60
2021/04/21 05:09:52;;;;;;;11.27;7.93;;;;;;;;;;5110359;28;20651;-58
2021/04/21 05:12:21;;;;;;;12.20;7.35;;;;;;;;;;5111877;28;20661;-59
2021/04/21 05:14:51;;;;;;;11.57;7.47;;;;;;;;;;5109876;28;20206;-58
2021/04/21 05:17:35;;;;;;;9.18;7.88;;;;;;;;;;5108359;28;20759;-59
2021/04/21 05:20:25;;;;;;;8.65;7.50;;;;;;;;;;5096224;28;20194;-59
2021/04/21 05:23:09;;;;;;;13.45;8.35;;;;;;;;;;5096725;28;20198;-59
2021/04/21 05:25:54;;;;;;;11.48;6.32;;;;;;;;;;5096451;28;20239;-60
2021/04/21 05:28:38;;;;;;;11.52;8.13;;;;;;;;;;5097100;28;20201;-60
2021/04/21 05:31:22;;;;;;;10.45;7.80;;;;;;;;;;5108954;28;20185;-60
2021/04/21 05:34:08;;;;;;;11.05;8.00;;;;;;;;;;5100809;28;20206;-61
2021/04/21 05:36:52;;;;;;;10.75;7.82;;;;;;;;;;5096468;28;20222;-60
2021/04/21 05:39:44;;;;;;;20.85;8.35;;;;;;;;;;5096717;28;20250;-60
2021/04/21 05:42:26;;;;;;;12.82;8.13;;;;;;;;;;5096476;28;20652;-60
2021/04/21 05:45:15;;;;;;;11.20;7.72;;;;;;;;;;5096750;28;20225;-60
2021/04/21 05:47:58;;;;;;;9.68;7.40;;;;;;;;;;5096696;28;20216;-59
2021/04/21 05:50:53;;;;;;;11.88;8.52;;;;;;;;;;5096110;28;20242;-59
2021/04/21 05:53:47;;;;;;;10.63;7.60;;;;;;;;;;5096530;28;20279;-60
2021/04/21 05:56:34;;;;;;;13.23;8.30;;;;;;;;;;5095944;28;20214;-60
2021/04/21 05:59:19;;;;;;;11.05;8.07;;;;;;;;;;5095789;28;20646;-60
2021/04/21 06:01:46;;;;;;;13.75;8.45;;;;;;;;;;5097867;28;20215;-59
2021/04/21 06:04:13;;;;;;;11.57;8.05;;;;;;;;;;5096194;28;20209;-60
2021/04/21 06:06:40;;;;;;;10.65;7.65;;;;;;;;;;5095246;28;20234;-60
2021/04/21 06:09:07;;;;;;;11.82;8.85;;;;;;;;;;5096289;28;20200;-61
2021/04/21 06:11:35;;;;;;;9.27;7.80;;;;;;;;;;5095220;28;20287;-60
2021/04/21 06:14:04;;;;;;;10.95;8.80;;;;;;;;;;5095428;28;20683;-60
2021/04/21 06:16:31;;;;;;;14.65;9.13;;;;;;;;;;5095027;28;20220;-60
2021/04/21 06:18:59;;;;;;;10.65;7.45;;;;;;;;;;5095421;28;20201;-59
2021/04/21 06:21:27;;;;;;;9.48;7.43;;;;;;;;;;5095497;28;20290;-60
2021/04/21 06:23:55;;;;;;;11.02;7.63;;;;;;;;;;5094798;28;20205;-59
2021/04/21 06:26:23;;;;;;;14.02;8.60;;;;;;;;;;5095028;28;20225;-60
2021/04/21 06:29:02;;;;;;;8.52;7.53;;;;;;;;;;5094785;28;20211;-59
2021/04/21 06:31:33;;;;;;;11.45;7.32;;;;;;;;;;5095138;28;20203;-59
2021/04/21 06:34:00;;;;;;;9.30;8.02;;;;;;;;;;5099470;28;20198;-59
2021/04/21 06:36:31;;;;;;;8.75;7.40;;;;;;;;;;5106335;28;20251;-59
2021/04/21 06:38:58;;;;;;;13.85;8.95;;;;;;;;;;5107805;28;20190;-59
2021/04/21 06:41:25;;;;;;;8.60;7.70;;;;;;;;;;5108832;28;20202;-60
2021/04/21 06:43:52;;;;;;;11.85;7.50;;;;;;;;;;5105893;28;20443;-59
2021/04/21 06:46:20;;;;;;;12.77;8.35;;;;;;;;;;5096541;28;20254;-59
2021/04/21 06:48:52;;;;;;;11.80;8.25;;;;;;;;;;5099029;28;20551;-61
2021/04/21 06:51:19;;;;;;;11.15;8.43;;;;;;;;;;5096002;28;20561;-59
2021/04/21 06:53:47;;;;;;;11.50;8.20;;;;;;;;;;5095362;28;20201;-60
2021/04/21 06:56:14;;;;;;;12.47;8.70;;;;;;;;;;5094861;28;20213;-60
2021/04/21 06:58:41;;;;;;;11.17;9.13;;;;;;;;;;5095134;28;20963;-59
2021/04/21 07:01:11;;;;;;;9.40;8.47;;;;;;;;;;5094811;28;20455;-60
2021/04/21 07:03:39;;;;;;;10.55;8.32;;;;;;;;;;5097342;28;20435;-60
2021/04/21 07:06:06;;;;;;;10.37;8.43;;;;;;;;;;5095337;28;20652;-59
2021/04/21 07:08:33;;;;;;;11.50;9.10;;;;;;;;;;5095949;28;20445;-59
2021/04/21 07:11:01;;;;;;;12.30;8.43;;;;;;;;;;5095017;28;20854;-60
2021/04/21 07:13:28;;;;;;;13.13;9.20;;;;;;;;;;5100063;28;20449;-61
2021/04/21 07:15:56;;;;;;;15.00;9.23;;;;;;;;;;5096021;28;20468;-60
2021/04/21 07:18:24;;;;;;;12.10;9.30;;;;;;;;;;5094862;28;20476;-60
2021/04/21 07:20:52;;;;;;;10.70;8.80;;;;;;;;;;5094879;28;20447;-60
2021/04/21 07:23:20;;;;;;;10.87;8.33;;;;;;;;;;5095094;28;20447;-59
2021/04/21 07:25:48;;;;;;;11.50;9.43;;;;;;;;;;5094267;28;20456;-60
2021/04/21 07:28:15;;;;;;;12.50;8.87;;;;;;;;;;5094357;28;20480;-59
2021/04/21 07:30:42;;;;;;;11.33;10.10;;;;;;;;;;5094782;28;20437;-60
2021/04/21 07:33:10;;;;;;;10.53;9.53;;;;;;;;;;5095455;28;20481;-59
2021/04/21 07:35:37;;;;;;;11.43;8.80;;;;;;;;;;5095191;28;20538;-59
2021/04/21 07:38:17;;;;;;;11.07;7.77;;;;;;;;;;5095544;28;20801;-60
2021/04/21 07:40:44;;;;;;;11.47;8.60;;;;;;;;;;5093942;28;20458;-60
2021/04/21 07:43:12;;;;;;;14.00;10.03;;;;;;;;;;5094070;28;20538;-61
2021/04/21 07:45:46;;;;;;;12.50;9.53;;;;;;;;;;5093547;28;20490;-59
2021/04/21 07:48:31;;;;;;;9.67;8.77;;;;;;;;;;5093761;28;20484;-60
2021/04/21 07:50:58;;;;;;;13.30;9.30;;;;;;;;;;5093519;28;20441;-60
2021/04/21 07:53:26;;;;;;;9.80;8.80;;;;;;;;;;5094512;28;20456;-59
2021/04/21 07:56:03;;;;;;;10.40;8.00;;;;;;;;;;5093879;28;20469;-60
2021/04/21 07:58:30;;;;;;;11.53;8.63;;;;;;;;;;5094190;28;20795;-60
2021/04/21 08:00:56;;;;;;;14.47;8.70;;;;;;;;;;5093779;28;20448;-59
2021/04/21 08:03:24;;;;;;;11.10;8.20;;;;;;;;;;5093332;28;20448;-60
2021/04/21 08:05:51;;;;;;;14.23;9.10;;;;;;;;;;5093461;28;20552;-60
2021/04/21 08:08:26;;;;;;;10.93;9.05;;;;;;;;;;5093782;28;20444;-60
2021/04/21 08:10:54;;;;;;;8.10;7.00;;;;;;;;;;5093386;28;20925;-59
2021/04/21 08:13:36;;;;;;;10.00;7.57;;;;;;;;;;5093830;28;20452;-60
2021/04/21 08:16:03;;;;;;;9.67;8.20;;;;;;;;;;5093829;28;20478;-59
2021/04/21 08:18:32;;;;;;;8.10;7.30;;;;;;;;;;5094521;28;20443;-60
2021/04/21 08:20:59;;;;;;;9.52;7.65;;;;;;;;;;5094043;28;20444;-61
2021/04/21 08:23:26;;;;;;;12.87;7.20;;;;;;;;;;5093847;28;20202;-60
2021/04/21 08:25:53;;;;;;;9.83;7.47;;;;;;;;;;5093721;28;20479;-60
2021/04/21 08:28:22;;;;;;;7.50;6.73;;;;;;;;;;5093604;28;20488;-60
2021/04/21 08:30:53;;;;;;;10.90;7.38;;;;;;;;;;5092739;28;20916;-60
2021/04/21 08:33:19;;;;;;;9.00;6.73;;;;;;;;;;5093421;28;20291;-59
2021/04/21 08:35:46;;;;;;;7.87;6.80;;;;;;;;;;5093301;28;20543;-60
2021/04/21 08:38:13;;;;;;;9.03;6.07;;;;;;;;;;5093003;28;20481;-60
2021/04/21 08:40:41;;;;;;;6.50;5.40;;;;;;;;;;5093511;28;20442;-60
2021/04/21 08:43:08;;;;;;;6.00;5.10;;;;;;;;;;5093506;28;20451;-60
2021/04/21 08:45:36;;;;;;;8.87;6.60;;;;;;;;;;5092986;28;20473;-59
2021/04/21 08:48:04;;;;;;;9.57;5.57;;;;;;;;;;5093009;28;20475;-61
2021/04/21 08:50:32;;;;;;;7.83;5.53;;;;;;;;;;5093726;28;20448;-60
2021/04/21 08:53:01;;;;;;;8.13;4.60;;;;;;;;;;5093487;28;20838;-59
2021/04/21 08:55:28;;;;;;;4.97;3.97;;;;;;;;;;5097207;28;20473;-59
2021/04/21 08:57:56;;;;;;;4.50;4.10;;;;;;;;;;5098003;28;20442;-59
2021/04/21 09:00:24;;;;;;;9.27;5.07;;;;;;;;;;5098107;28;20900;-59
2021/04/21 09:02:52;;;;;;;5.23;4.30;;;;;;;;;;5098382;28;20455;-59
2021/04/21 09:05:20;;;;;;;7.00;5.43;;;;;;;;;;5097668;28;20463;-58
2021/04/21 09:07:47;;;;;;;5.73;4.57;;;;;;;;;;5096768;28;20489;-58
2021/04/21 09:10:16;;;;;;;5.03;4.00;;;;;;;;;;5097404;28;20447;-59
2021/04/21 09:12:43;;;;;;;6.05;4.00;;;;;;;;;;5096220;28;20436;-60
2021/04/21 09:15:10;;;;;;;4.90;4.17;;;;;;;;;;5097489;28;20224;-59
2021/04/21 09:17:43;;;;;;;4.03;3.50;;;;;;;;;;5097928;28;20444;-60
2021/04/21 09:20:14;;;;;;;5.53;4.10;;;;;;;;;;5096617;28;20430;-60
2021/04/21 09:22:59;;;;;;;4.23;3.83;;;;;;;;;;5097954;28;20462;-60
2021/04/21 09:25:31;;;;;;;3.67;3.37;;;;;;;;;;5096832;28;20468;-61
2021/04/21 09:27:57;;;;;;;5.17;3.50;;;;;;;;;;5096441;28;20463;-61
2021/04/21 09:30:26;;;;;;;5.40;3.30;;;;;;;;;;5096391;28;20935;-60
2021/04/21 09:32:54;;;;;;;6.23;3.80;;;;;;;;;;5096195;28;20453;-60
2021/04/21 09:35:23;;;;;;;3.70;3.10;;;;;;;;;;5097246;28;20463;-61
2021/04/21 09:37:50;;;;;;;5.43;3.67;;;;;;;;;;5096002;28;20538;-60
2021/04/21 09:40:32;;;;;;;3.93;3.50;;;;;;;;;;5096181;28;20448;-60
2021/04/21 09:42:58;;;;;;;4.40;3.80;;;;;;;;;;5096644;28;20425;-59
2021/04/21 09:45:32;;;;;;;8.60;3.90;;;;;;;;;;5095989;28;20471;-60
2021/04/21 09:48:10;;;;;;;7.67;4.80;;;;;;;;;;5095688;28;20475;-59
2021/04/21 09:50:38;;;;;;;5.83;4.90;;;;;;;;;;5095748;28;20461;-61
2021/04/21 09:53:21;;;;;;;4.80;4.27;;;;;;;;;;5095792;28;20449;-60
2021/04/21 09:56:07;;;;;;;5.60;3.60;;;;;;;;;;5096264;28;20472;-60
2021/04/21 09:58:36;;;;;;;6.60;4.30;;;;;;;;;;5095222;28;20451;-61
2021/04/21 10:01:03;;;;;;;7.90;3.90;;;;;;;;;;5095961;28;20543;-60
2021/04/21 10:03:30;;;;;;;4.60;3.90;;;;;;;;;;5095901;28;20569;-61
2021/04/21 10:05:57;;;;;;;10.13;4.17;;;;;;;;;;5095678;28;20490;-61
2021/04/21 10:08:25;;;;;;;6.63;4.50;;;;;;;;;;5095184;28;20944;-61
2021/04/21 10:11:01;;;;;;;5.40;4.13;;;;;;;;;;5095340;28;20811;-60
2021/04/21 10:13:40;;;;;;;6.47;4.50;;;;;;;;;;5094989;28;20841;-61
2021/04/21 10:16:07;;;;;;;4.80;3.80;;;;;;;;;;5095905;28;20471;-60
2021/04/21 10:18:34;;;;;;;4.77;3.57;;;;;;;;;;5095259;28;20451;-61
2021/04/21 10:21:02;;;;;;;5.43;4.37;;;;;;;;;;5095194;28;21055;-61
2021/04/21 10:23:29;;;;;;;7.73;4.67;;;;;;;;;;5095249;28;20452;-60
2021/04/21 10:26:01;;;;;;;5.13;4.57;;;;;;;;;;5094622;28;20473;-59
2021/04/21 10:28:27;;;;;;;6.27;4.83;;;;;;;;;;5095052;28;20530;-60
2021/04/21 10:30:55;;;;;;;10.03;5.00;;;;;;;;;;5094787;28;20892;-60
2021/04/21 10:33:21;;;;;;;6.73;4.20;;;;;;;;;;5095669;28;20451;-61
2021/04/21 10:35:49;;;;;;;4.93;4.43;;;;;;;;;;5095576;28;20477;-60
2021/04/21 10:38:17;;;;;;;6.03;4.67;;;;;;;;;;5095666;28;20531;-61
2021/04/21 10:40:44;;;;;;;6.67;5.03;;;;;;;;;;5094422;28;20948;-60
2021/04/21 10:43:10;;;;;;;6.63;4.70;;;;;;;;;;5094512;28;20449;-60
2021/04/21 10:45:47;;;;;;;7.17;5.27;;;;;;;;;;5094769;28;21011;-59
2021/04/21 10:48:34;;;;;;;5.70;4.90;;;;;;;;;;5094633;28;20472;-60
2021/04/21 10:51:01;;;;;;;6.90;4.87;;;;;;;;;;5094701;28;20475;-60
2021/04/21 10:53:42;;;;;;;5.60;4.50;;;;;;;;;;5094536;28;20455;-60
2021/04/21 10:56:21;;;;;;;7.13;5.60;;;;;;;;;;5094504;28;20465;-59
2021/04/21 10:58:51;;;;;;;8.07;4.73;;;;;;;;;;5094268;28;20907;-61
2021/04/21 11:01:27;;;;;;;5.40;4.90;;;;;;;;;;5094179;28;20463;-60
2021/04/21 11:03:54;;;;;;;9.33;5.50;;;;;;;;;;5094455;28;20444;-60
2021/04/21 11:06:36;;;;;;;5.60;4.03;;;;;;;;;;5093619;28;20467;-60
2021/04/21 11:09:03;;;;;;;4.80;4.30;;;;;;;;;;5093909;28;20452;-60
2021/04/21 11:11:36;;;;;;;6.37;3.90;;;;;;;;;;5094404;28;20490;-61
2021/04/21 11:14:03;;;;;;;8.03;5.70;;;;;;;;;;5094191;28;20926;-60
2021/04/21 11:16:42;;;;;;;5.53;4.93;;;;;;;;;;5093689;28;20836;-61
2021/04/21 11:19:31;;;;;;;5.70;4.80;;;;;;;;;;5093464;28;20444;-60
2021/04/21 11:22:31;;;;;;;5.33;4.67;;;;;;;;;;5093698;28;20429;-61
2021/04/21 11:25:16;;;;;;;5.33;4.60;;;;;;;;;;5093637;28;21007;-61
2021/04/21 11:27:45;;;;;;;7.20;5.00;;;;;;;;;;5093932;28;20476;-61
2021/04/21 11:30:31;;;;;;;9.03;5.23;;;;;;;;;;5093361;28;20490;-61
2021/04/21 11:32:57;;;;;;;5.63;4.83;;;;;;;;;;5093476;28;20755;-62
2021/04/21 11:35:27;;;;;;;6.83;5.30;;;;;;;;;;5094204;28;20487;-61
2021/04/21 11:37:54;;;;;;;8.67;5.60;;;;;;;;;;5093691;28;20519;-62
2021/04/21 11:40:27;;;;;;;8.10;5.57;;;;;;;;;;5094700;28;20456;-61
2021/04/21 11:43:13;;;;;;;8.93;5.20;;;;;;;;;;5095021;28;20423;-61
2021/04/21 11:45:39;;;;;;;5.73;5.20;;;;;;;;;;5095962;28;20473;-61
2021/04/21 11:48:20;;;;;;;7.03;5.50;;;;;;;;;;5096864;28;20453;-60
2021/04/21 11:50:48;;;;;;;6.72;4.70;;;;;;;;;;5099553;28;20474;-62
2021/04/21 11:53:16;;;;;;;8.10;4.60;;;;;;;;;;5095977;28;20259;-61
2021/04/21 11:55:54;;;;;;;9.00;4.70;;;;;;;;;;5096592;28;20525;-61
2021/04/21 11:58:23;;;;;;;5.33;4.40;;;;;;;;;;5094831;28;20941;-60
2021/04/21 12:00:51;;;;;;;6.83;4.37;;;;;;;;;;5093184;28;20474;-61
2021/04/21 12:03:19;;;;;;;6.17;4.47;;;;;;;;;;5095616;28;20560;-60
2021/04/21 12:05:46;;;;;;;5.23;3.90;;;;;;;;;;5095019;28;20480;-60
2021/04/21 12:08:13;;;;;;;6.87;4.30;;;;;;;;;;5094123;28;20504;-62
2021/04/21 12:10:43;;;;;;;5.50;4.83;;;;;;;;;;5099840;28;20445;-60
2021/04/21 12:13:27;;;;;;;6.10;4.57;;;;;;;;;;5107647;28;20471;-61
2021/04/21 12:15:57;;;;;;;4.87;4.17;;;;;;;;;;5108563;28;20475;-61
2021/04/21 12:18:27;;;;;;;5.03;4.53;;;;;;;;;;5100878;28;21047;-61
2021/04/21 12:20:53;;;;;;;4.83;4.20;;;;;;;;;;5095384;28;20582;-61
2021/04/21 12:23:27;;;;;;;7.43;4.70;;;;;;;;;;5093844;28;20948;-60
2021/04/21 12:25:54;;;;;;;7.80;5.30;;;;;;;;;;5092523;28;20464;-60
2021/04/21 12:28:21;;;;;;;5.30;4.80;;;;;;;;;;5095243;28;20487;-61
2021/04/21 12:30:53;;;;;;;5.20;4.70;;;;;;;;;;5097286;28;20446;-62
2021/04/21 12:33:21;;;;;;;8.70;5.13;;;;;;;;;;5097492;28;20461;-62
2021/04/21 12:35:48;;;;;;;7.93;6.90;;;;;;;;;;5097921;28;20471;-61
2021/04/21 12:38:25;;;;;;;11.83;6.77;;;;;;;;;;5097433;28;20503;-61
2021/04/21 12:40:52;;;;;;;7.43;5.90;;;;;;;;;;5097573;28;20436;-61
2021/04/21 12:43:19;;;;;;;7.33;6.63;;;;;;;;;;5096776;28;20453;-60
2021/04/21 12:45:46;;;;;;;8.40;7.43;;;;;;;;;;5096551;28;20992;-61
2021/04/21 12:48:20;;;;;;;10.40;8.40;;;;;;;;;;5096665;28;20481;-61
2021/04/21 12:50:48;;;;;;;10.00;7.77;;;;;;;;;;5097139;28;20830;-60
2021/04/21 12:53:15;;;;;;;9.20;8.00;;;;;;;;;;5096716;28;20443;-61
2021/04/21 12:55:42;;;;;;;9.87;8.70;;;;;;;;;;5096822;28;20465;-61
2021/04/21 12:58:09;;;;;;;8.43;7.63;;;;;;;;;;5096502;28;20440;-61
2021/04/21 13:00:36;;;;;;;10.80;9.10;;;;;;;;;;5096637;28;20528;-61
2021/04/21 13:03:03;;;;;;;10.90;8.83;;;;;;;;;;5096290;28;20934;-61
2021/04/21 13:05:47;;;;;;;14.10;9.80;;;;;;;;;;5096600;28;20464;-60
2021/04/21 13:08:24;;;;;;;11.60;8.40;;;;;;;;;;5096868;28;20471;-61
2021/04/21 13:10:51;;;;;;;12.70;8.57;;;;;;;;;;5096664;28;20447;-60
2021/04/21 13:13:22;;;;;;;12.40;9.30;;;;;;;;;;5096693;28;20443;-62
2021/04/21 13:15:48;;;;;;;10.70;8.27;;;;;;;;;;5096981;28;20470;-60
2021/04/21 13:18:15;;;;;;;12.50;8.70;;;;;;;;;;5102754;28;20439;-62
2021/04/21 13:20:43;;;;;;;11.03;9.60;;;;;;;;;;5104006;28;20465;-60
2021/04/21 13:23:15;;;;;;;11.10;9.07;;;;;;;;;;5102489;28;20443;-59
2021/04/21 13:26:01;;;;;;;15.60;9.30;;;;;;;;;;5104811;28;20498;-59
2021/04/21 13:28:35;;;;;;;15.50;10.17;;;;;;;;;;5105710;28;20507;-60
2021/04/21 13:31:09;;;;;;;14.27;10.87;;;;;;;;;;5102959;28;20558;-60
2021/04/21 13:33:36;;;;;;;12.17;9.80;;;;;;;;;;5103819;28;20823;-61
2021/04/21 13:36:03;;;;;;;11.33;9.97;;;;;;;;;;5102945;28;20464;-60
2021/04/21 13:38:31;;;;;;;11.30;9.53;;;;;;;;;;5103550;28;20437;-62
2021/04/21 13:40:58;;;;;;;14.80;11.70;;;;;;;;;;5105980;28;20450;-60
2021/04/21 13:43:25;;;;;;;14.18;11.60;;;;;;;;;;5101221;28;20441;-60
2021/04/21 13:45:52;;;;;;;16.23;13.00;;;;;;;;;;5102020;28;20217;-62
2021/04/21 13:48:18;;;;;;;15.23;12.50;;;;;;;;;;5103709;28;20484;-60
2021/04/21 13:50:45;;;;;;;13.87;12.13;;;;;;;;;;5101741;28;20451;-60
2021/04/21 13:53:12;;;;;;;16.37;13.73;;;;;;;;;;5102004;28;21005;-61
2021/04/21 13:55:40;;;;;;;14.03;12.57;;;;;;;;;;5098660;28;20510;-60
2021/04/21 13:58:06;;;;;;;15.80;13.60;;;;;;;;;;5098019;28;20440;-61
2021/04/21 14:00:33;;;;;;;15.03;11.60;;;;;;;;;;5097745;28;20460;-60
2021/04/21 14:03:00;;;;;;;16.67;13.57;;;;;;;;;;5096260;28;20445;-60
2021/04/21 14:05:28;;;;;;;14.23;12.73;;;;;;;;;;5097346;28;20472;-60
2021/04/21 14:07:55;;;;;;;14.10;12.60;;;;;;;;;;5095962;28;20482;-61
2021/04/21 14:10:22;;;;;;;18.80;13.73;;;;;;;;;;5095973;28;20448;-61
2021/04/21 14:12:49;;;;;;;13.63;12.30;;;;;;;;;;5096804;28;20481;-60
2021/04/21 14:15:17;;;;;;;15.30;13.73;;;;;;;;;;5096072;28;20466;-62
2021/04/21 14:17:44;;;;;;;14.90;13.00;;;;;;;;;;5095387;28;20939;-61
2021/04/21 14:20:12;;;;;;;16.03;12.33;;;;;;;;;;5095522;28;20484;-61
2021/04/21 14:22:41;;;;;;;14.47;10.50;;;;;;;;;;5095546;28;20447;-61
2021/04/21 14:25:09;;;;;;;12.40;9.97;;;;;;;;;;5095288;28;20463;-61
2021/04/21 14:27:36;;;;;;;18.13;10.50;;;;;;;;;;5095149;28;20475;-61
2021/04/21 14:30:03;;;;;;;11.23;9.73;;;;;;;;;;5095070;28;20450;-61
2021/04/21 14:32:30;;;;;;;10.10;9.03;;;;;;;;;;5094743;28;20843;-60
2021/04/21 14:34:57;;;;;;;12.43;8.70;;;;;;;;;;5095443;28;20486;-60
2021/04/21 14:37:24;;;;;;;10.70;8.00;;;;;;;;;;5095096;28;20465;-61
2021/04/21 14:39:50;;;;;;;10.90;7.30;;;;;;;;;;5095821;28;20527;-61
2021/04/21 14:42:17;;;;;;;8.17;6.17;;;;;;;;;;5094566;28;20443;-62
2021/04/21 14:44:44;;;;;;;7.77;6.53;;;;;;;;;;5094687;28;20466;-61
2021/04/21 14:47:12;;;;;;;9.30;6.90;;;;;;;;;;5094824;28;20483;-62
2021/04/21 14:49:38;;;;;;;9.03;5.63;;;;;;;;;;5094287;28;20443;-61
2021/04/21 14:52:06;;;;;;;9.73;4.90;;;;;;;;;;5093667;28;20438;-61
2021/04/21 14:54:34;;;;;;;5.37;3.67;;;;;;;;;;5094269;28;20447;-61
2021/04/21 14:57:01;;;;;;;7.80;4.03;;;;;;;;;;5094450;28;20562;-62
2021/04/21 14:59:28;;;;;;;7.13;3.50;;;;;;;;;;5094502;28;20496;-61
2021/04/21 15:01:54;;;;;;;8.07;4.23;;;;;;;;;;5094535;28;20449;-61